createdAt,value
2022-08-07T00:01:12.628Z,94.84
2022-08-07T00:03:53.250Z,94.44
2022-08-07T00:06:29.428Z,94.20
2022-08-07T00:09:07.861Z,94.33
2022-08-07T00:11:48.108Z,94.18
2022-08-07T00:14:25.578Z,94.72
2022-08-07T00:16:58.812Z,94.91
2022-08-07T00:19:26.143Z,96.16
2022-08-07T00:22:03.380Z,96.71
2022-08-07T00:24:31.708Z,96.69
2022-08-07T00:27:07.533Z,96.94
2022-08-07T00:29:37.078Z,96.63
2022-08-07T00:32:05.835Z,97.21
2022-08-07T00:34:33.657Z,97.36
2022-08-07T00:37:02.654Z,97.83
2022-08-07T00:39:31.889Z,97.97
2022-08-07T00:42:02.158Z,98.53
2022-08-07T00:44:33.243Z,99.13
2022-08-07T00:47:00.273Z,98.91
2022-08-07T00:50:19.611Z,99.24
2022-08-07T00:52:13.217Z,100.00
2022-08-07T00:54:44.252Z,99.45
2022-08-07T00:57:11.428Z,99.98
2022-08-07T00:59:38.777Z,100.00
2022-08-07T01:02:14.116Z,100.00
2022-08-07T01:04:53.775Z,100.00
2022-08-07T01:07:25.023Z,100.00
2022-08-07T01:10:04.122Z,100.00
2022-08-07T01:12:34.448Z,100.00
2022-08-07T01:15:03.954Z,100.00
2022-08-07T01:17:32.154Z,100.00
2022-08-07T01:20:05.003Z,100.00
2022-08-07T01:22:33.255Z,100.00
2022-08-07T01:25:00.796Z,100.00
2022-08-07T01:27:32.441Z,100.00
2022-08-07T01:29:59.872Z,100.00
2022-08-07T01:32:28.042Z,100.00
2022-08-07T01:34:56.018Z,100.00
2022-08-07T01:37:24.438Z,100.00
2022-08-07T01:39:52.121Z,100.00
2022-08-07T01:42:40.058Z,100.00
2022-08-07T01:45:15.806Z,100.00
2022-08-07T01:48:21.111Z,100.00
2022-08-07T01:50:30.316Z,100.00
2022-08-07T01:53:00.982Z,100.00
2022-08-07T01:55:33.465Z,100.00
2022-08-07T01:58:06.679Z,100.00
2022-08-07T02:01:09.437Z,100.00
2022-08-07T02:03:50.905Z,100.00
2022-08-07T02:06:31.933Z,100.00
2022-08-07T02:09:03.758Z,100.00
2022-08-07T02:12:03.901Z,100.00
2022-08-07T02:14:35.711Z,100.00
2022-08-07T02:17:10.894Z,100.00
2022-08-07T02:20:04.685Z,100.00
2022-08-07T02:22:31.021Z,100.00
2022-08-07T02:24:58.790Z,100.00
2022-08-07T02:27:34.131Z,100.00
2022-08-07T02:30:07.119Z,100.00
2022-08-07T02:32:39.477Z,100.00
2022-08-07T02:36:29.364Z,100.00
2022-08-07T02:38:14.634Z,100.00
2022-08-07T02:40:44.196Z,100.00
2022-08-07T02:43:15.377Z,100.00
2022-08-07T02:45:58.674Z,100.00
2022-08-07T02:48:28.102Z,100.00
2022-08-07T02:50:56.186Z,100.00
2022-08-07T02:53:31.358Z,100.00
2022-08-07T02:56:12.855Z,100.00
2022-08-07T02:58:47.328Z,100.00
2022-08-07T03:01:19.131Z,100.00
2022-08-07T03:04:07.149Z,100.00
2022-08-07T03:06:36.089Z,100.00
2022-08-07T03:09:07.618Z,100.00
2022-08-07T03:11:51.845Z,100.00
2022-08-07T03:14:25.208Z,100.00
2022-08-07T03:16:52.394Z,100.00
2022-08-07T03:19:19.590Z,100.00
2022-08-07T03:21:50.423Z,100.00
2022-08-07T03:24:26.695Z,100.00
2022-08-07T03:27:00.137Z,100.00
2022-08-07T03:29:33.942Z,100.00
2022-08-07T03:32:06.763Z,100.00
2022-08-07T03:34:39.171Z,100.00
2022-08-07T03:37:12.441Z,100.00
2022-08-07T03:39:46.531Z,100.00
2022-08-07T03:42:26.941Z,100.00
2022-08-07T03:44:57.984Z,100.00
2022-08-07T03:47:25.539Z,100.00
2022-08-07T03:49:56.476Z,100.00
2022-08-07T03:52:27.328Z,100.00
2022-08-07T03:55:06.217Z,100.00
2022-08-07T03:59:05.521Z,100.00
2022-08-07T04:00:21.270Z,100.00
2022-08-07T04:02:59.339Z,100.00
2022-08-07T04:05:39.842Z,100.00
2022-08-07T04:08:16.063Z,100.00
2022-08-07T04:10:54.665Z,100.00
2022-08-07T04:14:10.326Z,100.00
2022-08-07T04:16:30.788Z,100.00
2022-08-07T04:19:12.614Z,100.00
2022-08-07T04:21:59.371Z,100.00
2022-08-07T04:24:33.570Z,100.00
2022-08-07T04:27:02.899Z,100.00
2022-08-07T04:29:48.675Z,100.00
2022-08-07T04:32:18.036Z,100.00
2022-08-07T04:34:55.516Z,100.00
2022-08-07T04:37:22.285Z,100.00
2022-08-07T04:39:50.843Z,100.00
2022-08-07T04:42:17.425Z,100.00
2022-08-07T04:44:54.561Z,100.00
2022-08-07T04:47:58.611Z,100.00
2022-08-07T04:50:44.021Z,100.00
2022-08-07T04:54:01.138Z,100.00
2022-08-07T04:58:14.999Z,100.00
2022-08-07T05:00:12.634Z,100.00
2022-08-07T05:03:02.747Z,100.00
2022-08-07T05:05:52.858Z,100.00
2022-08-07T05:09:00.814Z,100.00
2022-08-07T05:11:57.231Z,100.00
2022-08-07T05:14:52.110Z,100.00
2022-08-07T05:17:52.803Z,100.00
2022-08-07T05:20:13.729Z,100.00
2022-08-07T05:22:43.355Z,100.00
2022-08-07T05:25:25.706Z,100.00
2022-08-07T05:28:03.029Z,100.00
2022-08-07T05:30:47.254Z,100.00
2022-08-07T05:33:15.360Z,100.00
2022-08-07T05:35:45.589Z,100.00
2022-08-07T05:39:00.168Z,100.00
2022-08-07T05:41:05.287Z,100.00
2022-08-07T05:43:49.980Z,100.00
2022-08-07T05:46:29.582Z,100.00
2022-08-07T05:48:58.189Z,100.00
2022-08-07T05:51:26.151Z,100.00
2022-08-07T05:54:13.677Z,100.00
2022-08-07T05:56:47.769Z,100.00
2022-08-07T05:59:19.347Z,100.00
2022-08-07T06:01:49.802Z,100.00
2022-08-07T06:04:19.764Z,100.00
2022-08-07T06:06:47.634Z,100.00
2022-08-07T06:09:23.447Z,100.00
2022-08-07T06:12:10.035Z,100.00
2022-08-07T06:14:38.960Z,100.00
2022-08-07T06:17:07.322Z,100.00
2022-08-07T06:19:52.299Z,100.00
2022-08-07T06:22:26.921Z,100.00
2022-08-07T06:24:58.011Z,100.00
2022-08-07T06:27:44.502Z,100.00
2022-08-07T06:30:35.146Z,100.00
2022-08-07T06:33:01.106Z,100.00
2022-08-07T06:35:38.955Z,100.00
2022-08-07T06:38:19.835Z,100.00
2022-08-07T06:40:51.988Z,100.00
2022-08-07T06:43:23.540Z,100.00
2022-08-07T06:45:50.791Z,100.00
2022-08-07T06:48:24.707Z,100.00
2022-08-07T06:50:53.473Z,100.00
2022-08-07T06:55:28.647Z,100.00
2022-08-07T06:56:15.506Z,100.00
2022-08-07T07:00:13.579Z,100.00
2022-08-07T07:01:41.955Z,100.00
2022-08-07T07:04:28.202Z,100.00
2022-08-07T07:07:01.042Z,100.00
2022-08-07T07:09:31.200Z,100.00
2022-08-07T07:12:16.599Z,100.00
2022-08-07T07:15:08.685Z,99.37
2022-08-07T07:17:58.123Z,100.00
2022-08-07T07:20:29.707Z,99.96
2022-08-07T07:24:10.288Z,100.00
2022-08-07T07:26:33.868Z,98.97
2022-08-07T07:29:57.124Z,97.05
2022-08-07T07:31:47.467Z,95.40
2022-08-07T07:34:19.658Z,94.59
2022-08-07T07:36:52.610Z,94.17
2022-08-07T07:39:25.700Z,92.97
2022-08-07T07:42:13.308Z,92.12
2022-08-07T07:44:44.432Z,90.50
2022-08-07T07:47:23.646Z,90.60
2022-08-07T07:50:34.369Z,88.48
2022-08-07T07:52:41.683Z,86.80
2022-08-07T07:55:09.455Z,86.76
2022-08-07T07:57:52.059Z,84.89
2022-08-07T08:00:29.690Z,83.35
2022-08-07T08:03:07.983Z,81.45
2022-08-07T08:05:51.040Z,77.29
2022-08-07T08:08:35.212Z,80.26
2022-08-07T08:11:08.069Z,79.70
2022-08-07T08:13:54.852Z,78.38
2022-08-07T08:16:29.981Z,76.40
2022-08-07T08:19:00.260Z,77.00
2022-08-07T08:22:03.017Z,76.20
2022-08-07T08:25:04.783Z,74.68
2022-08-07T08:27:56.055Z,74.71
2022-08-07T08:30:24.791Z,72.83
2022-08-07T08:32:59.041Z,69.03
2022-08-07T08:35:28.862Z,70.41
2022-08-07T08:38:05.116Z,69.40
2022-08-07T08:40:38.009Z,68.48
2022-08-07T08:43:17.845Z,64.62
2022-08-07T08:46:00.741Z,65.75
2022-08-07T08:48:50.912Z,64.60
2022-08-07T08:52:01.087Z,60.92
2022-08-07T08:54:41.495Z,60.54
2022-08-07T08:57:16.384Z,61.78
2022-08-07T08:59:50.875Z,59.96
2022-08-07T09:02:40.363Z,58.96
2022-08-07T09:05:26.444Z,57.54
2022-08-07T09:08:32.819Z,60.42
2022-08-07T09:11:24.988Z,57.32
2022-08-07T09:14:20.283Z,54.30
2022-08-07T09:16:52.937Z,58.08
2022-08-07T09:19:57.564Z,53.33
2022-08-07T09:24:30.927Z,52.41
2022-08-07T09:26:01.402Z,50.85
2022-08-07T09:30:04.644Z,53.69
2022-08-07T09:31:48.633Z,50.59
2022-08-07T09:34:32.485Z,48.15
2022-08-07T09:37:20.403Z,48.06
2022-08-07T09:40:20.637Z,48.09
2022-08-07T09:43:08.338Z,47.81
2022-08-07T09:47:25.942Z,47.73
2022-08-07T09:50:01.780Z,45.32
2022-08-07T09:52:10.856Z,44.98
2022-08-07T09:55:04.431Z,44.94
2022-08-07T09:57:54.430Z,43.77
2022-08-07T10:00:30.004Z,45.60
2022-08-07T10:04:06.373Z,43.00
2022-08-07T10:06:12.013Z,44.42
2022-08-07T10:09:09.804Z,40.65
2022-08-07T10:12:01.662Z,41.63
2022-08-07T10:14:55.277Z,41.56
2022-08-07T10:18:00.941Z,38.36
2022-08-07T10:21:19.832Z,37.25
2022-08-07T10:24:04.934Z,39.76
2022-08-07T10:27:18.014Z,38.05
2022-08-07T10:29:51.604Z,38.28
2022-08-07T10:32:53.196Z,37.12
2022-08-07T10:35:55.381Z,38.51
2022-08-07T10:38:36.121Z,37.30
2022-08-07T10:41:46.618Z,37.95
2022-08-07T10:44:37.598Z,36.05
2022-08-07T10:47:53.339Z,35.87
2022-08-07T10:50:26.119Z,37.09
2022-08-07T10:53:05.229Z,35.35
2022-08-07T10:55:58.135Z,35.05
2022-08-07T10:58:59.977Z,34.92
2022-08-07T11:01:51.332Z,35.19
2022-08-07T11:04:52.172Z,34.34
2022-08-07T11:07:58.388Z,35.67
2022-08-07T11:10:19.955Z,34.05
2022-08-07T11:13:01.666Z,34.10
2022-08-07T11:15:34.226Z,34.71
2022-08-07T11:18:17.766Z,33.50
2022-08-07T11:20:56.224Z,33.08
2022-08-07T11:23:45.460Z,32.81
2022-08-07T11:26:27.800Z,32.79
2022-08-07T11:29:42.093Z,32.27
2022-08-07T11:32:08.856Z,32.14
2022-08-07T11:34:44.910Z,33.27
2022-08-07T11:37:57.503Z,31.61
2022-08-07T11:40:35.915Z,31.70
2022-08-07T11:44:10.749Z,31.75
2022-08-07T11:47:04.333Z,30.41
2022-08-07T11:50:30.608Z,30.58
2022-08-07T11:53:22.092Z,31.30
2022-08-07T11:56:26.599Z,30.01
2022-08-07T12:00:08.217Z,31.07
2022-08-07T12:02:01.268Z,30.75
2022-08-07T12:04:38.737Z,30.02
2022-08-07T12:07:27.480Z,29.79
2022-08-07T12:10:05.940Z,29.94
2022-08-07T12:12:46.440Z,28.75
2022-08-07T12:15:57.944Z,28.97
2022-08-07T12:18:13.947Z,29.29
2022-08-07T12:21:21.206Z,28.85
2022-08-07T12:24:37.559Z,27.97
2022-08-07T12:27:14.957Z,28.75
2022-08-07T12:29:51.729Z,28.54
2022-08-07T12:32:40.780Z,27.93
2022-08-07T12:35:12.520Z,28.77
2022-08-07T12:38:09.059Z,28.74
2022-08-07T12:40:50.826Z,28.87
2022-08-07T12:44:02.136Z,28.31
2022-08-07T12:46:32.794Z,27.11
2022-08-07T12:49:25.879Z,27.58
2022-08-07T12:52:29.431Z,27.49
2022-08-07T12:55:17.568Z,27.71
2022-08-07T12:58:01.185Z,27.77
2022-08-07T13:00:50.132Z,26.86
2022-08-07T13:03:53.519Z,26.68
2022-08-07T13:07:01.847Z,26.82
2022-08-07T13:10:21.438Z,26.91
2022-08-07T13:12:57.905Z,25.34
2022-08-07T13:15:47.671Z,25.95
2022-08-07T13:18:36.123Z,25.24
2022-08-07T13:21:10.710Z,25.89
2022-08-07T13:24:01.440Z,25.50
2022-08-07T13:26:46.079Z,25.90
2022-08-07T13:29:20.172Z,26.49
2022-08-07T13:31:59.870Z,25.88
2022-08-07T13:35:08.698Z,25.12
2022-08-07T13:37:55.322Z,25.40
2022-08-07T13:40:35.034Z,26.06
2022-08-07T13:43:12.298Z,26.36
2022-08-07T13:46:20.837Z,25.80
2022-08-07T13:48:34.713Z,25.87
2022-08-07T13:51:28.534Z,25.67
2022-08-07T13:54:00.181Z,25.84
2022-08-07T13:56:35.340Z,25.22
2022-08-07T13:59:32.758Z,24.86
2022-08-07T14:02:12.624Z,25.31
2022-08-07T14:04:54.842Z,24.67
2022-08-07T14:07:26.191Z,25.12
2022-08-07T14:10:15.657Z,24.50
2022-08-07T14:13:02.835Z,23.34
2022-08-07T14:15:39.629Z,24.08
2022-08-07T14:18:32.623Z,23.95
2022-08-07T14:21:11.983Z,24.29
2022-08-07T14:24:02.219Z,24.30
2022-08-07T14:26:50.541Z,23.64
2022-08-07T14:30:05.269Z,24.24
2022-08-07T14:32:29.943Z,24.21
2022-08-07T14:35:01.319Z,24.34
2022-08-07T14:37:39.102Z,24.25
2022-08-07T14:40:16.979Z,23.98
2022-08-07T14:43:55.396Z,23.26
2022-08-07T14:45:59.433Z,23.65
2022-08-07T14:48:33.211Z,23.58
2022-08-07T14:51:16.109Z,23.18
2022-08-07T14:54:05.423Z,23.19
2022-08-07T14:56:33.120Z,23.56
2022-08-07T14:59:13.680Z,23.11
2022-08-07T15:01:51.943Z,22.94
2022-08-07T15:04:21.781Z,22.65
2022-08-07T15:06:52.235Z,23.13
2022-08-07T15:12:25.848Z,21.97
2022-08-07T15:15:21.378Z,22.18
2022-08-07T15:17:56.042Z,21.92
2022-08-07T15:23:22.519Z,22.34
2022-08-07T15:26:10.898Z,22.61
2022-08-07T15:28:56.711Z,22.26
2022-08-07T15:32:01.904Z,21.80
2022-08-07T15:34:28.106Z,22.13
2022-08-07T15:37:02.909Z,21.87
2022-08-07T15:39:57.944Z,22.10
2022-08-07T15:42:47.876Z,20.99
2022-08-07T15:45:25.743Z,21.76
2022-08-07T15:48:12.678Z,21.71
2022-08-07T15:53:51.597Z,20.66
2022-08-07T15:56:24.250Z,20.95
2022-08-07T15:58:59.180Z,20.40
2022-08-07T16:01:39.435Z,19.93
2022-08-07T16:04:15.174Z,19.69
2022-08-07T16:06:59.984Z,19.30
2022-08-07T16:09:54.630Z,19.47
2022-08-07T16:13:04.601Z,19.68
2022-08-07T16:15:57.939Z,19.43
2022-08-07T16:18:59.080Z,19.44
2022-08-07T16:22:02.623Z,19.72
2022-08-07T16:24:33.830Z,20.17
2022-08-07T16:27:17.880Z,19.38
2022-08-07T16:30:10.693Z,19.68
2022-08-07T16:33:00.620Z,19.65
2022-08-07T16:35:58.459Z,20.30
2022-08-07T16:39:00.727Z,20.38
2022-08-07T16:41:48.783Z,20.34
2022-08-07T16:44:46.933Z,20.97
2022-08-07T16:47:56.620Z,21.46
2022-08-07T16:50:41.684Z,21.97
2022-08-07T16:54:02.476Z,22.30
2022-08-07T16:56:22.063Z,22.76
2022-08-07T16:59:14.301Z,23.43
2022-08-07T17:02:03.489Z,23.61
2022-08-07T17:04:57.536Z,24.10
2022-08-07T17:07:55.311Z,24.20
2022-08-07T17:10:54.954Z,24.70
2022-08-07T17:13:41.853Z,24.88
2022-08-07T17:16:29.209Z,24.63
2022-08-07T17:19:17.273Z,24.82
2022-08-07T17:22:10.720Z,24.95
2022-08-07T17:25:02.599Z,25.45
2022-08-07T17:27:56.941Z,25.45
2022-08-07T17:30:30.074Z,25.44
2022-08-07T17:34:15.546Z,25.71
2022-08-07T17:36:12.254Z,25.70
2022-08-07T17:38:56.909Z,25.74
2022-08-07T17:42:05.007Z,26.08
2022-08-07T17:44:41.495Z,26.09
2022-08-07T17:47:38.587Z,25.93
2022-08-07T17:50:19.275Z,26.40
2022-08-07T17:52:59.606Z,26.84
2022-08-07T17:56:01.026Z,26.96
2022-08-07T17:58:33.017Z,27.14
2022-08-07T18:01:20.963Z,26.92
2022-08-07T18:04:24.672Z,27.54
2022-08-07T18:07:20.130Z,27.87
2022-08-07T18:10:05.915Z,27.56
2022-08-07T18:13:09.785Z,27.42
2022-08-07T18:15:54.948Z,27.83
2022-08-07T18:18:45.210Z,27.73
2022-08-07T18:21:30.099Z,28.12
2022-08-07T18:24:34.440Z,29.26
2022-08-07T18:27:39.306Z,29.02
2022-08-07T18:30:32.810Z,28.87
2022-08-07T18:33:15.586Z,29.91
2022-08-07T18:36:08.150Z,30.33
2022-08-07T18:38:58.724Z,30.20
2022-08-07T18:41:44.958Z,31.15
2022-08-07T18:45:09.200Z,30.93
2022-08-07T18:47:44.429Z,32.31
2022-08-07T18:50:43.974Z,32.81
2022-08-07T18:53:36.921Z,33.04
2022-08-07T18:56:17.905Z,33.49
2022-08-07T18:59:00.934Z,34.52
2022-08-07T19:02:31.780Z,34.37
2022-08-07T19:04:38.903Z,34.63
2022-08-07T19:07:51.569Z,36.57
2022-08-07T19:10:31.603Z,35.40
2022-08-07T19:13:10.272Z,36.27
2022-08-07T19:17:00.433Z,37.58
2022-08-07T19:19:17.381Z,38.67
2022-08-07T19:21:58.508Z,37.93
2022-08-07T19:24:43.496Z,38.30
2022-08-07T19:28:58.014Z,38.45
2022-08-07T19:31:05.817Z,40.01
2022-08-07T19:33:08.321Z,39.80
2022-08-07T19:35:42.128Z,39.53
2022-08-07T19:38:16.757Z,40.59
2022-08-07T19:40:50.407Z,40.38
2022-08-07T19:43:48.737Z,42.30
2022-08-07T19:46:26.479Z,41.63
2022-08-07T19:49:05.638Z,42.60
2022-08-07T19:51:53.102Z,42.26
2022-08-07T19:54:33.746Z,43.18
2022-08-07T19:58:00.838Z,43.58
2022-08-07T20:00:08.958Z,44.74
2022-08-07T20:02:51.685Z,44.97
2022-08-07T20:05:29.746Z,44.84
2022-08-07T20:08:13.721Z,47.18
2022-08-07T20:10:55.237Z,45.40
2022-08-07T20:13:58.130Z,48.50
2022-08-07T20:16:34.884Z,48.26
2022-08-07T20:19:05.938Z,47.60
2022-08-07T20:21:46.589Z,47.89
2022-08-07T20:24:17.904Z,48.35
2022-08-07T20:26:52.341Z,49.15
2022-08-07T20:29:48.338Z,50.35
2022-08-07T20:32:25.746Z,51.32
2022-08-07T20:34:56.002Z,50.15
2022-08-07T20:37:33.593Z,53.15
2022-08-07T20:40:33.149Z,51.54
2022-08-07T20:42:59.142Z,51.87
2022-08-07T20:46:28.786Z,52.30
2022-08-07T20:48:28.771Z,53.37
2022-08-07T20:51:00.497Z,54.16
2022-08-07T20:54:02.804Z,55.29
2022-08-07T20:56:25.805Z,54.73
2022-08-07T20:58:55.590Z,55.11
2022-08-07T21:01:25.740Z,55.95
2022-08-07T21:04:21.731Z,57.74
2022-08-07T21:06:53.627Z,57.51
2022-08-07T21:09:24.668Z,57.96
2022-08-07T21:11:57.553Z,58.74
2022-08-07T21:14:33.869Z,59.07
2022-08-07T21:18:00.890Z,60.58
2022-08-07T21:20:04.563Z,59.89
2022-08-07T21:22:39.835Z,60.55
2022-08-07T21:25:17.032Z,59.65
2022-08-07T21:28:01.738Z,61.79
2022-08-07T21:30:49.415Z,61.30
2022-08-07T21:33:47.509Z,58.82
2022-08-07T21:36:31.878Z,59.33
2022-08-07T21:39:46.016Z,58.27
2022-08-07T21:46:08.386Z,58.82
2022-08-07T21:48:48.190Z,61.52
2022-08-07T21:51:26.303Z,60.40
2022-08-07T21:54:22.469Z,62.20
2022-08-07T21:57:08.111Z,60.26
2022-08-07T22:00:04.051Z,58.90
2022-08-07T22:02:56.519Z,63.14
2022-08-07T22:05:45.489Z,60.98
2022-08-07T22:08:14.312Z,61.08
2022-08-07T22:10:49.603Z,61.23
2022-08-07T22:13:17.093Z,61.41
2022-08-07T22:16:42.457Z,64.34
2022-08-07T22:19:23.543Z,66.22
2022-08-07T22:22:17.796Z,64.79
2022-08-07T22:25:02.735Z,64.34
2022-08-07T22:28:29.546Z,64.58
2022-08-07T22:31:05.190Z,65.46
2022-08-07T22:33:56.450Z,67.26
2022-08-07T22:36:38.442Z,66.88
2022-08-07T22:39:16.625Z,67.42
2022-08-07T22:42:03.502Z,67.81
2022-08-07T22:44:58.678Z,67.49
2022-08-07T22:47:56.785Z,70.85
2022-08-07T22:50:45.203Z,71.48
2022-08-07T22:54:07.643Z,71.84
2022-08-07T22:57:02.910Z,73.39
2022-08-07T22:59:50.477Z,73.37
2022-08-07T23:02:24.035Z,69.94
2022-08-07T23:06:07.671Z,72.57
2022-08-07T23:08:30.176Z,71.86
2022-08-07T23:11:27.519Z,74.33
2022-08-07T23:14:17.653Z,74.48
2022-08-07T23:16:54.953Z,74.72
2022-08-07T23:20:03.321Z,76.67
2022-08-07T23:22:43.643Z,77.04
2022-08-07T23:25:34.935Z,76.74
2022-08-07T23:28:29.345Z,76.95
2022-08-07T23:32:48.939Z,78.46
2022-08-07T23:34:39.925Z,76.08
2022-08-07T23:38:01.533Z,79.46
2022-08-07T23:40:33.156Z,77.40
2022-08-07T23:43:22.917Z,79.10
2022-08-07T23:46:10.535Z,78.29
2022-08-07T23:49:13.757Z,80.44
2022-08-07T23:53:00.393Z,77.76
2022-08-07T23:54:56.816Z,77.78
2022-08-07T23:57:42.732Z,78.20
